createdAt,value
2023-06-21T00:00:48.220Z,89.21
2023-06-21T00:03:15.197Z,89.04
2023-06-21T00:05:41.743Z,89.47
2023-06-21T00:08:08.202Z,89.37
2023-06-21T00:10:35.830Z,89.45
2023-06-21T00:13:02.285Z,89.43
2023-06-21T00:15:29.250Z,89.38
2023-06-21T00:17:55.794Z,89.73
2023-06-21T00:20:22.908Z,89.20
2023-06-21T00:22:56.694Z,89.14
2023-06-21T00:25:25.201Z,89.34
2023-06-21T00:27:52.089Z,89.20
2023-06-21T00:30:18.619Z,88.86
2023-06-21T00:32:45.075Z,88.92
2023-06-21T00:35:12.345Z,88.67
2023-06-21T00:37:39.359Z,89.29
2023-06-21T00:40:13.575Z,89.25
2023-06-21T00:42:40.932Z,89.28
2023-06-21T00:45:09.662Z,89.34
2023-06-21T00:47:36.082Z,89.20
2023-06-21T00:50:02.724Z,89.20
2023-06-21T00:52:29.789Z,89.02
2023-06-21T00:54:57.153Z,89.34
2023-06-21T00:57:23.834Z,89.03
2023-06-21T00:59:50.316Z,88.90
2023-06-21T01:02:16.739Z,89.05
2023-06-21T01:04:43.566Z,89.38
2023-06-21T01:07:30.140Z,89.21
2023-06-21T01:10:15.651Z,89.22
2023-06-21T01:13:05.608Z,89.33
2023-06-21T01:15:42.638Z,89.33
2023-06-21T01:18:13.677Z,89.17
2023-06-21T01:20:41.681Z,89.13
2023-06-21T01:23:32.684Z,89.16
2023-06-21T01:26:05.285Z,89.02
2023-06-21T01:29:04.778Z,89.41
2023-06-21T01:31:32.048Z,89.16
2023-06-21T01:34:00.857Z,89.54
2023-06-21T01:36:27.473Z,89.53
2023-06-21T01:38:58.082Z,89.49
2023-06-21T01:41:30.023Z,89.11
2023-06-21T01:43:58.471Z,89.16
2023-06-21T01:46:27.387Z,89.44
2023-06-21T01:48:54.370Z,89.61
2023-06-21T01:51:22.163Z,89.46
2023-06-21T01:53:49.784Z,89.51
2023-06-21T01:56:19.217Z,89.73
2023-06-21T01:58:47.744Z,89.73
2023-06-21T02:01:15.027Z,90.14
2023-06-21T02:03:44.968Z,90.01
2023-06-21T02:06:12.575Z,90.60
2023-06-21T02:08:40.046Z,90.71
2023-06-21T02:11:06.627Z,90.58
2023-06-21T02:13:33.216Z,90.48
2023-06-21T02:15:59.653Z,90.44
2023-06-21T02:18:26.149Z,90.34
2023-06-21T02:20:53.357Z,90.47
2023-06-21T02:23:19.901Z,90.14
2023-06-21T02:25:46.571Z,90.33
2023-06-21T02:28:13.128Z,90.31
2023-06-21T02:30:39.485Z,90.15
2023-06-21T02:33:05.941Z,90.29
2023-06-21T02:35:32.466Z,90.18
2023-06-21T02:38:02.595Z,89.92
2023-06-21T02:40:30.426Z,90.25
2023-06-21T02:42:57.021Z,90.18
2023-06-21T02:45:24.425Z,89.78
2023-06-21T02:47:50.950Z,90.00
2023-06-21T02:50:18.477Z,90.42
2023-06-21T02:52:45.111Z,90.30
2023-06-21T02:55:11.858Z,89.82
2023-06-21T02:57:38.306Z,90.22
2023-06-21T03:00:20.610Z,90.45
2023-06-21T03:02:47.205Z,90.36
2023-06-21T03:05:14.075Z,90.22
2023-06-21T03:07:44.994Z,90.21
2023-06-21T03:10:13.044Z,90.43
2023-06-21T03:12:44.171Z,90.64
2023-06-21T03:15:12.239Z,90.15
2023-06-21T03:17:39.880Z,90.65
2023-06-21T03:20:15.015Z,90.23
2023-06-21T03:22:44.551Z,90.12
2023-06-21T03:25:14.223Z,90.15
2023-06-21T03:27:40.994Z,90.02
2023-06-21T03:30:12.337Z,90.18
2023-06-21T03:32:40.523Z,89.91
2023-06-21T03:35:07.210Z,89.84
2023-06-21T03:37:33.655Z,89.72
2023-06-21T03:40:00.413Z,89.47
2023-06-21T03:42:26.863Z,89.75
2023-06-21T03:44:53.308Z,89.62
2023-06-21T03:47:19.717Z,89.80
2023-06-21T03:49:46.077Z,89.77
2023-06-21T03:52:12.481Z,90.21
2023-06-21T03:54:39.029Z,90.10
2023-06-21T03:57:05.838Z,89.89
2023-06-21T03:59:32.372Z,89.97
2023-06-21T04:01:58.768Z,90.12
2023-06-21T04:04:25.285Z,89.81
2023-06-21T04:06:52.923Z,90.18
2023-06-21T04:09:19.313Z,90.28
2023-06-21T04:11:47.403Z,89.71
2023-06-21T04:14:15.705Z,89.97
2023-06-21T04:16:43.506Z,89.74
2023-06-21T04:19:09.971Z,89.53
2023-06-21T04:21:36.423Z,89.61
2023-06-21T04:24:03.063Z,89.38
2023-06-21T04:26:29.891Z,89.15
2023-06-21T04:28:56.302Z,89.15
2023-06-21T04:31:22.946Z,89.32
2023-06-21T04:33:49.876Z,89.24
2023-06-21T04:36:19.373Z,89.06
2023-06-21T04:38:52.648Z,88.51
2023-06-21T04:41:19.772Z,88.55
2023-06-21T04:43:46.357Z,88.75
2023-06-21T04:46:12.755Z,88.49
2023-06-21T04:48:39.286Z,88.72
2023-06-21T04:51:06.410Z,88.32
2023-06-21T04:53:33.470Z,88.02
2023-06-21T04:56:00.041Z,88.46
2023-06-21T04:58:27.574Z,88.12
2023-06-21T05:00:54.329Z,87.79
2023-06-21T05:03:21.071Z,87.71
2023-06-21T05:05:47.668Z,87.37
2023-06-21T05:08:14.431Z,87.18
2023-06-21T05:10:41.084Z,87.02
2023-06-21T05:13:07.488Z,86.86
2023-06-21T05:15:33.946Z,87.21
2023-06-21T05:18:00.465Z,86.44
2023-06-21T05:20:27.231Z,86.28
2023-06-21T05:22:53.979Z,86.41
2023-06-21T05:25:20.609Z,86.24
2023-06-21T05:27:47.024Z,86.64
2023-06-21T05:30:13.541Z,86.41
2023-06-21T05:32:39.995Z,86.24
2023-06-21T05:35:06.807Z,85.42
2023-06-21T05:37:34.919Z,84.93
2023-06-21T05:40:03.778Z,85.30
2023-06-21T05:42:30.713Z,85.18
2023-06-21T05:44:57.163Z,85.25
2023-06-21T05:47:23.562Z,84.55
2023-06-21T05:49:51.525Z,84.57
2023-06-21T05:52:20.420Z,84.70
2023-06-21T05:54:46.935Z,84.39
2023-06-21T05:57:13.376Z,82.03
2023-06-21T05:59:39.930Z,77.32
2023-06-21T06:02:07.172Z,76.98
2023-06-21T06:04:33.769Z,76.19
2023-06-21T06:07:00.173Z,74.71
2023-06-21T06:09:26.651Z,75.51
2023-06-21T06:11:53.781Z,72.76
2023-06-21T06:14:20.227Z,73.91
2023-06-21T06:16:47.142Z,73.99
2023-06-21T06:19:13.603Z,74.49
2023-06-21T06:21:39.960Z,76.23
2023-06-21T06:24:06.469Z,76.95
2023-06-21T06:26:32.847Z,77.64
2023-06-21T06:28:59.250Z,77.97
2023-06-21T06:31:28.136Z,77.32
2023-06-21T06:33:54.629Z,74.21
2023-06-21T06:36:21.512Z,72.87
2023-06-21T06:38:51.962Z,71.07
2023-06-21T06:41:18.783Z,69.85
2023-06-21T06:43:46.052Z,68.80
2023-06-21T06:46:12.506Z,67.41
2023-06-21T06:48:38.880Z,66.52
2023-06-21T06:51:05.315Z,68.68
2023-06-21T06:53:31.927Z,68.46
2023-06-21T06:56:00.158Z,65.61
2023-06-21T06:58:28.063Z,63.96
2023-06-21T07:00:54.827Z,62.26
2023-06-21T07:03:21.394Z,61.67
2023-06-21T07:05:48.501Z,61.99
2023-06-21T07:08:15.185Z,60.88
2023-06-21T07:10:41.807Z,61.40
2023-06-21T07:13:08.439Z,60.68
2023-06-21T07:15:35.321Z,57.21
2023-06-21T07:18:02.387Z,56.28
2023-06-21T07:20:29.525Z,55.37
2023-06-21T07:22:57.429Z,54.29
2023-06-21T07:25:24.233Z,56.04
2023-06-21T07:27:50.772Z,57.38
2023-06-21T07:30:18.392Z,57.75
2023-06-21T07:32:44.813Z,54.99
2023-06-21T07:35:14.091Z,56.59
2023-06-21T07:37:40.562Z,55.57
2023-06-21T07:40:08.754Z,56.05
2023-06-21T07:42:35.241Z,56.48
2023-06-21T07:45:01.896Z,57.14
2023-06-21T07:47:29.166Z,55.92
2023-06-21T07:49:56.759Z,56.39
2023-06-21T07:52:24.362Z,55.60
2023-06-21T07:54:50.762Z,56.83
2023-06-21T07:57:17.746Z,57.21
2023-06-21T07:59:44.598Z,56.92
2023-06-21T08:02:11.260Z,57.07
2023-06-21T08:04:38.282Z,56.40
2023-06-21T08:07:05.003Z,56.77
2023-06-21T08:09:31.367Z,58.86
2023-06-21T08:11:59.761Z,58.13
2023-06-21T08:14:26.158Z,56.93
2023-06-21T08:16:52.530Z,58.61
2023-06-21T08:19:18.954Z,57.59
2023-06-21T08:21:46.450Z,56.32
2023-06-21T08:24:13.130Z,57.74
2023-06-21T08:26:39.615Z,58.67
2023-06-21T08:29:06.047Z,57.90
2023-06-21T08:31:33.916Z,58.61
2023-06-21T08:34:00.548Z,59.46
2023-06-21T08:36:27.630Z,59.55
2023-06-21T08:38:54.009Z,57.88
2023-06-21T08:41:20.495Z,58.95
2023-06-21T08:43:46.907Z,59.91
2023-06-21T08:46:14.044Z,59.99
2023-06-21T08:48:42.238Z,59.69
2023-06-21T08:51:08.675Z,58.88
2023-06-21T08:53:48.132Z,58.15
2023-06-21T08:56:21.152Z,59.59
2023-06-21T08:58:54.311Z,57.35
2023-06-21T09:01:24.012Z,59.36
2023-06-21T09:03:58.582Z,59.88
2023-06-21T09:06:27.560Z,60.06
2023-06-21T09:08:54.835Z,58.05
2023-06-21T09:11:24.891Z,59.42
2023-06-21T09:13:52.361Z,58.70
2023-06-21T09:16:20.341Z,60.04
2023-06-21T09:18:47.868Z,60.09
2023-06-21T09:21:15.301Z,58.35
2023-06-21T09:23:42.007Z,56.92
2023-06-21T09:26:09.514Z,53.79
2023-06-21T09:28:36.672Z,54.96
2023-06-21T09:31:03.284Z,57.31
2023-06-21T09:33:30.042Z,54.91
2023-06-21T09:35:57.713Z,56.69
2023-06-21T09:38:26.159Z,54.99
2023-06-21T09:40:53.302Z,54.56
2023-06-21T09:43:24.053Z,55.69
2023-06-21T09:46:04.733Z,56.09
2023-06-21T09:48:35.635Z,56.25
2023-06-21T09:51:03.822Z,51.95
2023-06-21T09:53:30.473Z,55.39
2023-06-21T09:55:57.521Z,54.85
2023-06-21T09:58:24.789Z,55.43
2023-06-21T10:00:51.560Z,55.92
2023-06-21T10:03:23.383Z,56.83
2023-06-21T10:06:02.390Z,56.01
2023-06-21T10:08:34.428Z,52.36
2023-06-21T10:11:02.480Z,56.09
2023-06-21T10:13:31.457Z,51.99
2023-06-21T10:16:00.761Z,53.81
2023-06-21T10:18:27.898Z,51.93
2023-06-21T10:20:58.072Z,52.71
2023-06-21T10:23:30.227Z,52.63
2023-06-21T10:26:00.826Z,53.37
2023-06-21T10:28:29.344Z,51.23
2023-06-21T10:30:59.660Z,51.95
2023-06-21T10:33:31.166Z,53.12
2023-06-21T10:36:00.621Z,49.58
2023-06-21T10:38:47.683Z,51.02
2023-06-21T10:41:15.681Z,51.78
2023-06-21T10:43:43.538Z,50.36
2023-06-21T10:46:11.915Z,51.68
2023-06-21T10:48:39.079Z,49.77
2023-06-21T10:51:05.762Z,50.87
2023-06-21T10:53:36.694Z,48.76
2023-06-21T10:56:08.705Z,48.69
2023-06-21T10:58:35.202Z,50.93
2023-06-21T11:01:01.785Z,51.60
2023-06-21T11:03:28.768Z,50.99
2023-06-21T11:06:25.520Z,50.30
2023-06-21T11:08:52.147Z,49.20
2023-06-21T11:11:33.047Z,48.81
2023-06-21T11:14:05.359Z,49.58
2023-06-21T11:16:34.781Z,48.66
2023-06-21T11:19:07.893Z,47.66
2023-06-21T11:21:48.672Z,49.41
2023-06-21T11:24:20.307Z,49.82
2023-06-21T11:26:58.632Z,47.75
2023-06-21T11:29:43.278Z,49.01
2023-06-21T11:32:14.426Z,49.50
2023-06-21T11:35:09.550Z,49.97
2023-06-21T11:37:48.822Z,49.13
2023-06-21T11:40:17.148Z,48.89
2023-06-21T11:42:49.079Z,47.63
2023-06-21T11:45:25.730Z,49.41
2023-06-21T11:48:13.986Z,47.09
2023-06-21T11:50:45.814Z,47.52
2023-06-21T11:53:29.653Z,46.50
2023-06-21T11:56:01.827Z,45.12
2023-06-21T11:58:29.462Z,44.72
2023-06-21T12:00:56.967Z,44.93
2023-06-21T12:03:28.043Z,46.11
2023-06-21T12:05:58.060Z,44.76
2023-06-21T12:08:30.002Z,44.68
2023-06-21T12:11:00.925Z,45.44
2023-06-21T12:13:28.544Z,44.91
2023-06-21T12:15:57.205Z,44.81
2023-06-21T12:18:25.390Z,47.78
2023-06-21T12:20:57.152Z,46.80
2023-06-21T12:23:23.781Z,44.65
2023-06-21T12:25:52.450Z,47.47
2023-06-21T12:28:20.862Z,46.48
2023-06-21T12:31:01.475Z,43.24
2023-06-21T12:33:40.724Z,43.20
2023-06-21T12:36:21.398Z,40.86
2023-06-21T12:39:08.139Z,40.98
2023-06-21T12:41:35.597Z,41.50
2023-06-21T12:44:04.354Z,41.43
2023-06-21T12:46:38.469Z,41.50
2023-06-21T12:49:05.002Z,39.60
2023-06-21T12:51:35.137Z,38.74
2023-06-21T12:54:12.956Z,40.81
2023-06-21T12:56:41.605Z,40.62
2023-06-21T12:59:09.391Z,37.86
2023-06-21T13:01:37.957Z,38.55
2023-06-21T13:04:12.999Z,39.28
2023-06-21T13:06:40.874Z,40.17
2023-06-21T13:09:08.066Z,39.38
2023-06-21T13:11:34.693Z,39.21
2023-06-21T13:14:02.922Z,38.89
2023-06-21T13:16:29.326Z,39.28
2023-06-21T13:18:56.122Z,38.07
2023-06-21T13:21:22.876Z,37.42
2023-06-21T13:23:50.924Z,38.85
2023-06-21T13:26:18.362Z,36.25
2023-06-21T13:28:45.194Z,38.32
2023-06-21T13:31:14.166Z,38.43
2023-06-21T13:33:41.471Z,39.16
2023-06-21T13:36:09.376Z,38.28
2023-06-21T13:38:36.072Z,38.46
2023-06-21T13:41:05.070Z,38.53
2023-06-21T13:43:32.393Z,42.30
2023-06-21T13:45:59.374Z,42.23
2023-06-21T13:48:25.897Z,43.74
2023-06-21T13:50:53.190Z,42.37
2023-06-21T13:53:20.344Z,44.87
2023-06-21T13:55:46.730Z,43.03
2023-06-21T13:58:13.122Z,44.93
2023-06-21T14:00:39.908Z,44.74
2023-06-21T14:03:06.565Z,43.85
2023-06-21T14:05:33.319Z,43.67
2023-06-21T14:08:00.212Z,43.16
2023-06-21T14:10:27.884Z,44.36
2023-06-21T14:12:54.593Z,43.93
2023-06-21T14:15:20.996Z,44.57
2023-06-21T14:17:47.395Z,41.77
2023-06-21T14:20:15.417Z,41.51
2023-06-21T14:22:41.824Z,42.34
2023-06-21T14:25:09.681Z,41.36
2023-06-21T14:27:36.416Z,40.68
2023-06-21T14:30:05.079Z,41.60
2023-06-21T14:32:32.431Z,40.59
2023-06-21T14:34:59.278Z,40.08
2023-06-21T14:37:26.872Z,39.38
2023-06-21T14:39:55.469Z,38.20
2023-06-21T14:42:23.798Z,40.00
2023-06-21T14:44:51.128Z,40.11
2023-06-21T14:47:17.691Z,38.46
2023-06-21T14:49:46.318Z,39.88
2023-06-21T14:52:13.065Z,39.70
2023-06-21T14:54:39.774Z,39.67
2023-06-21T14:57:06.477Z,42.16
2023-06-21T14:59:32.862Z,42.03
2023-06-21T15:01:59.315Z,41.35
2023-06-21T15:04:25.814Z,42.06
2023-06-21T15:06:52.388Z,40.02
2023-06-21T15:09:18.854Z,42.34
2023-06-21T15:11:45.279Z,40.13
2023-06-21T15:14:11.739Z,41.66
2023-06-21T15:16:43.404Z,40.60
2023-06-21T15:19:12.506Z,40.38
2023-06-21T15:21:40.033Z,40.28
2023-06-21T15:24:07.658Z,39.60
2023-06-21T15:26:34.721Z,40.18
2023-06-21T15:29:02.476Z,42.01
2023-06-21T15:31:28.896Z,40.90
2023-06-21T15:33:55.497Z,40.36
2023-06-21T15:36:22.396Z,39.22
2023-06-21T15:38:48.824Z,40.69
2023-06-21T15:41:15.934Z,39.46
2023-06-21T15:43:42.804Z,40.17
2023-06-21T15:46:09.248Z,40.03
2023-06-21T15:48:35.710Z,39.86
2023-06-21T15:51:02.184Z,38.83
2023-06-21T15:53:28.673Z,41.29
2023-06-21T15:55:55.134Z,41.48
2023-06-21T15:58:21.601Z,40.83
2023-06-21T16:00:48.388Z,38.63
2023-06-21T16:03:15.855Z,40.99
2023-06-21T16:05:42.551Z,41.89
2023-06-21T16:08:08.949Z,42.37
2023-06-21T16:10:35.412Z,39.39
2023-06-21T16:13:04.308Z,41.27
2023-06-21T16:15:32.611Z,41.96
2023-06-21T16:17:59.343Z,42.89
2023-06-21T16:20:27.417Z,42.98
2023-06-21T16:22:53.867Z,41.76
2023-06-21T16:25:21.410Z,42.07
2023-06-21T16:27:47.858Z,42.26
2023-06-21T16:30:14.486Z,43.18
2023-06-21T16:32:42.160Z,42.84
2023-06-21T16:35:08.788Z,43.49
2023-06-21T16:37:35.219Z,43.14
2023-06-21T16:40:01.631Z,41.89
2023-06-21T16:42:30.211Z,40.38
2023-06-21T16:44:57.199Z,41.92
2023-06-21T16:47:24.407Z,40.18
2023-06-21T16:49:50.871Z,39.89
2023-06-21T16:52:17.410Z,43.31
2023-06-21T16:54:43.853Z,42.83
2023-06-21T16:57:17.771Z,42.61
2023-06-21T16:59:45.330Z,45.15
2023-06-21T17:02:11.851Z,44.71
2023-06-21T17:04:38.299Z,44.58
2023-06-21T17:07:05.271Z,44.06
2023-06-21T17:09:31.663Z,45.46
2023-06-21T17:11:58.696Z,44.67
2023-06-21T17:14:25.190Z,43.34
2023-06-21T17:16:51.558Z,45.83
2023-06-21T17:19:18.961Z,44.01
2023-06-21T17:21:45.612Z,44.48
2023-06-21T17:24:12.088Z,42.25
2023-06-21T17:26:38.497Z,43.02
2023-06-21T17:29:04.886Z,44.89
2023-06-21T17:31:31.579Z,44.16
2023-06-21T17:33:58.142Z,44.24
2023-06-21T17:36:24.828Z,42.64
2023-06-21T17:38:51.570Z,41.73
2023-06-21T17:41:17.985Z,43.98
2023-06-21T17:43:44.421Z,43.35
2023-06-21T17:46:10.819Z,44.02
2023-06-21T17:48:39.417Z,43.39
2023-06-21T17:51:06.079Z,45.48
2023-06-21T17:53:32.608Z,47.39
2023-06-21T17:55:58.998Z,46.48
2023-06-21T17:58:25.532Z,46.76
2023-06-21T18:00:53.125Z,47.63
2023-06-21T18:03:19.783Z,48.00
2023-06-21T18:05:46.392Z,46.74
2023-06-21T18:08:12.767Z,48.34
2023-06-21T18:10:39.146Z,49.38
2023-06-21T18:13:06.859Z,48.98
2023-06-21T18:15:34.481Z,47.63
2023-06-21T18:18:01.140Z,48.95
2023-06-21T18:20:27.599Z,49.65
2023-06-21T18:22:55.583Z,49.14
2023-06-21T18:25:22.369Z,49.65
2023-06-21T18:27:49.704Z,51.37
2023-06-21T18:30:16.317Z,50.91
2023-06-21T18:32:42.921Z,51.43
2023-06-21T18:35:09.989Z,51.50
2023-06-21T18:37:38.484Z,49.34
2023-06-21T18:40:05.711Z,51.14
2023-06-21T18:42:32.213Z,50.89
2023-06-21T18:44:58.918Z,50.43
2023-06-21T18:47:25.387Z,53.79
2023-06-21T18:49:52.033Z,51.85
2023-06-21T18:52:18.423Z,53.10
2023-06-21T18:54:44.827Z,50.51
2023-06-21T18:57:11.268Z,51.68
2023-06-21T18:59:37.841Z,51.48
2023-06-21T19:02:05.778Z,51.85
2023-06-21T19:04:36.628Z,53.63
2023-06-21T19:07:04.281Z,53.37
2023-06-21T19:09:30.685Z,53.25
2023-06-21T19:11:57.380Z,53.66
2023-06-21T19:14:23.961Z,53.59
2023-06-21T19:16:51.949Z,52.61
2023-06-21T19:19:18.752Z,53.11
2023-06-21T19:21:45.243Z,53.18
2023-06-21T19:24:11.761Z,53.61
2023-06-21T19:26:39.769Z,54.22
2023-06-21T19:29:08.132Z,54.76
2023-06-21T19:31:35.999Z,55.18
2023-06-21T19:34:02.669Z,55.33
2023-06-21T19:36:29.422Z,55.26
2023-06-21T19:38:56.403Z,56.24
2023-06-21T19:41:23.014Z,56.78
2023-06-21T19:43:49.480Z,56.34
2023-06-21T19:46:15.874Z,56.32
2023-06-21T19:48:42.330Z,57.28
2023-06-21T19:51:08.715Z,56.62
2023-06-21T19:53:36.258Z,57.41
2023-06-21T19:56:02.855Z,57.95
2023-06-21T19:58:29.859Z,57.83
2023-06-21T20:00:56.552Z,58.25
2023-06-21T20:03:23.213Z,58.87
2023-06-21T20:05:51.746Z,59.33
2023-06-21T20:08:18.329Z,60.22
2023-06-21T20:10:46.217Z,60.31
2023-06-21T20:13:12.637Z,61.06
2023-06-21T20:15:40.873Z,61.69
2023-06-21T20:18:08.558Z,62.11
2023-06-21T20:20:36.651Z,62.12
2023-06-21T20:23:03.629Z,62.42
2023-06-21T20:25:31.496Z,62.46
2023-06-21T20:27:57.934Z,64.02
2023-06-21T20:30:24.913Z,65.06
2023-06-21T20:32:51.407Z,64.91
2023-06-21T20:35:17.900Z,64.82
2023-06-21T20:37:44.293Z,65.01
2023-06-21T20:40:15.630Z,65.41
2023-06-21T20:42:42.813Z,65.48
2023-06-21T20:45:22.114Z,65.65
2023-06-21T20:47:51.945Z,65.86
2023-06-21T20:50:20.591Z,66.25
2023-06-21T20:52:47.118Z,66.53
2023-06-21T20:55:13.561Z,67.27
2023-06-21T20:57:39.924Z,67.99
2023-06-21T21:00:12.190Z,68.12
2023-06-21T21:02:38.974Z,68.04
2023-06-21T21:05:05.890Z,68.53
2023-06-21T21:07:32.526Z,68.56
2023-06-21T21:09:59.090Z,69.03
2023-06-21T21:12:27.297Z,69.22
2023-06-21T21:14:54.360Z,69.34
2023-06-21T21:17:20.896Z,69.31
2023-06-21T21:19:47.838Z,69.76
2023-06-21T21:22:15.012Z,70.52
2023-06-21T21:24:41.856Z,70.79
2023-06-21T21:27:08.702Z,70.99
2023-06-21T21:29:36.625Z,71.27
2023-06-21T21:32:05.348Z,71.61
2023-06-21T21:34:31.888Z,72.01
2023-06-21T21:36:58.588Z,71.61
2023-06-21T21:39:28.291Z,71.86
2023-06-21T21:41:54.697Z,71.42
2023-06-21T21:44:21.443Z,72.05
2023-06-21T21:46:48.784Z,73.10
2023-06-21T21:49:16.001Z,72.43
2023-06-21T21:51:43.012Z,72.23
2023-06-21T21:54:09.674Z,72.77
2023-06-21T21:56:36.041Z,73.21
2023-06-21T21:59:02.454Z,73.61
2023-06-21T22:01:28.923Z,73.96
2023-06-21T22:03:55.592Z,74.25
2023-06-21T22:06:22.270Z,74.03
2023-06-21T22:08:48.649Z,74.55
2023-06-21T22:11:16.708Z,74.40
2023-06-21T22:13:44.206Z,74.45
2023-06-21T22:16:13.485Z,74.86
2023-06-21T22:18:41.582Z,75.07
2023-06-21T22:21:10.283Z,75.43
2023-06-21T22:23:38.586Z,76.04
2023-06-21T22:26:07.416Z,76.07
2023-06-21T22:28:39.092Z,76.34
2023-06-21T22:31:06.075Z,76.54
2023-06-21T22:33:33.448Z,76.71
2023-06-21T22:36:00.032Z,76.97
2023-06-21T22:38:26.811Z,77.27
2023-06-21T22:40:55.036Z,77.02
2023-06-21T22:43:21.572Z,77.09
2023-06-21T22:45:47.970Z,77.18
2023-06-21T22:48:14.616Z,77.41
2023-06-21T22:50:43.717Z,77.13
2023-06-21T22:53:10.460Z,77.45
2023-06-21T22:55:36.953Z,77.24
2023-06-21T22:58:05.077Z,77.32
2023-06-21T23:00:32.209Z,77.10
2023-06-21T23:02:58.904Z,77.11
2023-06-21T23:05:25.623Z,77.63
2023-06-21T23:07:52.255Z,77.42
2023-06-21T23:10:18.614Z,77.78
2023-06-21T23:12:45.104Z,77.68
2023-06-21T23:15:17.679Z,77.70
2023-06-21T23:17:45.526Z,77.80
2023-06-21T23:20:13.930Z,77.38
2023-06-21T23:22:41.312Z,77.37
2023-06-21T23:25:13.316Z,77.65
2023-06-21T23:27:44.230Z,78.19
2023-06-21T23:30:20.558Z,78.49
2023-06-21T23:32:57.115Z,78.48
2023-06-21T23:35:23.544Z,78.83
2023-06-21T23:37:54.830Z,78.77
2023-06-21T23:40:21.254Z,78.26
2023-06-21T23:42:52.527Z,78.37
2023-06-21T23:45:19.267Z,78.50
2023-06-21T23:47:45.797Z,79.33
2023-06-21T23:50:12.566Z,79.15
2023-06-21T23:52:42.345Z,79.51
2023-06-21T23:55:09.689Z,79.55
2023-06-21T23:57:36.114Z,79.70
